createdAt,value
2022-09-06T00:00:02.767Z,99573.06
2022-09-06T00:01:10.946Z,99585.56
2022-09-06T00:02:12.657Z,99594.16
2022-09-06T00:03:14.592Z,99593.09
2022-09-06T00:04:16.438Z,99589.63
2022-09-06T00:05:18.466Z,99580.69
2022-09-06T00:06:20.896Z,99590.44
2022-09-06T00:07:22.618Z,99597.53
2022-09-06T00:08:24.353Z,99583.84
2022-09-06T00:09:26.317Z,99604.50
2022-09-06T00:10:29.268Z,99598.09
2022-09-06T00:11:31.189Z,99602.88
2022-09-06T00:12:33.367Z,99596.72
2022-09-06T00:13:35.719Z,99607.91
2022-09-06T00:14:37.608Z,99607.91
2022-09-06T00:15:40.039Z,99602.56
2022-09-06T00:16:41.941Z,99601.06
2022-09-06T00:17:45.474Z,99601.41
2022-09-06T00:18:47.411Z,99612.09
2022-09-06T00:19:49.129Z,99606.75
2022-09-06T00:20:50.858Z,99609.44
2022-09-06T00:21:52.609Z,99592.47
2022-09-06T00:23:02.836Z,99608.38
2022-09-06T00:24:04.678Z,99590.03
2022-09-06T00:25:07.643Z,99602.00
2022-09-06T00:26:09.416Z,99594.91
2022-09-06T00:27:11.158Z,99597.94
2022-09-06T00:28:12.942Z,99597.94
2022-09-06T00:29:14.666Z,99590.03
2022-09-06T00:30:16.522Z,99598.97
2022-09-06T00:31:21.300Z,99592.16
2022-09-06T00:32:23.410Z,99594.34
2022-09-06T00:33:25.330Z,99599.69
2022-09-06T00:34:27.701Z,99601.53
2022-09-06T00:35:29.767Z,99603.66
2022-09-06T00:36:31.795Z,99604.94
2022-09-06T00:37:33.499Z,99603.31
2022-09-06T00:38:35.712Z,99597.41
2022-09-06T00:39:37.430Z,99605.41
2022-09-06T00:40:39.503Z,99599.03
2022-09-06T00:41:41.240Z,99601.69
2022-09-06T00:42:43.046Z,99596.34
2022-09-06T00:43:45.067Z,99604.59
2022-09-06T00:44:47.797Z,99599.25
2022-09-06T00:45:49.820Z,99598.69
2022-09-06T00:46:54.427Z,99594.84
2022-09-06T00:47:58.501Z,99579.91
2022-09-06T00:49:05.880Z,99598.72
2022-09-06T00:50:08.872Z,99583.91
2022-09-06T00:51:12.639Z,99602.78
2022-09-06T00:52:16.968Z,99595.81
2022-09-06T00:53:19.721Z,99597.56
2022-09-06T00:54:21.943Z,99601.63
2022-09-06T00:55:26.336Z,99606.16
2022-09-06T00:56:28.734Z,99600.00
2022-09-06T00:57:32.303Z,99600.25
2022-09-06T00:58:34.557Z,99608.03
2022-09-06T00:59:39.333Z,99607.78
2022-09-06T01:00:41.230Z,99591.56
2022-09-06T01:01:43.318Z,99606.97
2022-09-06T01:02:45.427Z,99605.94
2022-09-06T01:03:47.446Z,99606.16
2022-09-06T01:04:49.878Z,99605.34
2022-09-06T01:06:18.452Z,99603.50
2022-09-06T01:07:23.364Z,99608.25
2022-09-06T01:08:38.649Z,99585.56
2022-09-06T01:10:19.100Z,99608.97
2022-09-06T01:11:45.855Z,99604.44
2022-09-06T01:13:25.547Z,99603.41
2022-09-06T01:15:01.864Z,99582.88
2022-09-06T01:16:22.069Z,99599.00
2022-09-06T01:17:33.101Z,99596.31
2022-09-06T01:18:46.763Z,99600.28
2022-09-06T01:20:33.771Z,99604.25
2022-09-06T01:21:52.547Z,99606.09
2022-09-06T01:23:09.523Z,99599.13
2022-09-06T01:25:02.201Z,99611.69
2022-09-06T01:26:25.606Z,99612.16
2022-09-06T01:27:44.582Z,99603.09
2022-09-06T01:28:47.530Z,99595.38
2022-09-06T01:30:02.228Z,99611.34
2022-09-06T01:31:25.670Z,99615.28
2022-09-06T01:32:50.522Z,99580.69
2022-09-06T01:34:17.264Z,99603.97
2022-09-06T01:35:33.997Z,99604.47
2022-09-06T01:37:08.921Z,99597.16
2022-09-06T01:38:11.592Z,99605.53
2022-09-06T01:39:23.184Z,99604.13
2022-09-06T01:40:25.033Z,99602.84
2022-09-06T01:41:27.587Z,99602.28
2022-09-06T01:42:33.258Z,99579.66
2022-09-06T01:43:40.339Z,99586.59
2022-09-06T01:44:51.972Z,99592.63
2022-09-06T01:46:02.693Z,99583.81
2022-09-06T01:47:16.428Z,99586.47
2022-09-06T01:48:36.646Z,99584.63
2022-09-06T01:50:02.964Z,99578.47
2022-09-06T01:51:32.373Z,99567.09
2022-09-06T01:52:42.928Z,99577.41
2022-09-06T01:54:18.011Z,99573.94
2022-09-06T01:55:38.184Z,99572.09
2022-09-06T01:57:22.800Z,99564.53
2022-09-06T01:58:58.643Z,99567.91
2022-09-06T02:00:09.429Z,99564.69
2022-09-06T02:01:19.440Z,99563.63
2022-09-06T02:02:38.745Z,99566.31
2022-09-06T02:03:52.758Z,99545.88
2022-09-06T02:05:04.909Z,99550.03
2022-09-06T02:06:22.477Z,99544.44
2022-09-06T02:07:27.854Z,99548.75
2022-09-06T02:08:47.380Z,99539.25
2022-09-06T02:09:55.333Z,99544.44
2022-09-06T02:11:07.334Z,99549.78
2022-09-06T02:12:13.396Z,99547.69
2022-09-06T02:13:18.371Z,99552.22
2022-09-06T02:14:28.881Z,99549.56
2022-09-06T02:15:35.120Z,99558.97
2022-09-06T02:16:41.063Z,99545.28
2022-09-06T02:17:53.713Z,99553.38
2022-09-06T02:19:09.609Z,99552.59
2022-09-06T02:20:24.917Z,99546.88
2022-09-06T02:21:33.023Z,99552.59
2022-09-06T02:22:40.307Z,99550.97
2022-09-06T02:23:44.413Z,99535.19
2022-09-06T02:24:50.291Z,99562.69
2022-09-06T02:26:00.543Z,99557.81
2022-09-06T02:27:02.271Z,99556.66
2022-09-06T02:28:05.684Z,99553.19
2022-09-06T02:29:08.065Z,99552.84
2022-09-06T02:30:10.841Z,99553.06
2022-09-06T02:31:24.208Z,99541.13
2022-09-06T02:32:29.245Z,99554.94
2022-09-06T02:33:33.399Z,99558.88
2022-09-06T02:34:40.165Z,99545.31
2022-09-06T02:35:45.115Z,99562.03
2022-09-06T02:36:47.771Z,99562.50
2022-09-06T02:37:50.127Z,99550.78
2022-09-06T02:38:52.056Z,99552.66
2022-09-06T02:39:56.156Z,99545.78
2022-09-06T02:40:58.696Z,99554.97
2022-09-06T02:42:01.767Z,99550.91
2022-09-06T02:43:03.569Z,99561.94
2022-09-06T02:44:05.369Z,99564.69
2022-09-06T02:45:07.903Z,99559.34
2022-09-06T02:46:10.003Z,99564.69
2022-09-06T02:47:11.914Z,99555.63
2022-09-06T02:48:14.638Z,99559.94
2022-09-06T02:49:16.379Z,99557.50
2022-09-06T02:50:18.267Z,99548.59
2022-09-06T02:51:20.790Z,99554.81
2022-09-06T02:52:22.537Z,99562.75
2022-09-06T02:53:24.248Z,99562.75
2022-09-06T02:54:26.178Z,99558.66
2022-09-06T02:55:27.893Z,99569.81
2022-09-06T02:56:29.633Z,99560.41
2022-09-06T02:57:31.350Z,99565.75
2022-09-06T02:58:33.065Z,99561.22
2022-09-06T02:59:34.860Z,99545.34
2022-09-06T03:00:37.628Z,99552.31
2022-09-06T03:01:39.412Z,99562.63
2022-09-06T03:02:41.190Z,99568.31
2022-09-06T03:03:43.020Z,99564.84
2022-09-06T03:04:44.967Z,99567.50
2022-09-06T03:05:49.856Z,99571.78
2022-09-06T03:06:51.607Z,99552.41
2022-09-06T03:07:54.586Z,99577.13
2022-09-06T03:08:56.399Z,99562.25
2022-09-06T03:09:58.450Z,99572.84
2022-09-06T03:11:01.031Z,99572.84
2022-09-06T03:12:02.957Z,99574.69
2022-09-06T03:13:04.678Z,99568.78
2022-09-06T03:14:06.405Z,99569.13
2022-09-06T03:15:08.633Z,99576.09
2022-09-06T03:16:10.667Z,99574.47
2022-09-06T03:17:12.455Z,99575.50
2022-09-06T03:18:14.937Z,99569.94
2022-09-06T03:19:18.058Z,99569.34
2022-09-06T03:20:22.788Z,99564.69
2022-09-06T03:21:24.731Z,99579.56
2022-09-06T03:22:26.475Z,99575.03
2022-09-06T03:23:29.812Z,99575.03
2022-09-06T03:24:31.510Z,99583.06
2022-09-06T03:25:33.441Z,99585.72
2022-09-06T03:26:35.574Z,99578.53
2022-09-06T03:27:38.284Z,99583.28
2022-09-06T03:28:40.340Z,99577.72
2022-09-06T03:29:42.070Z,99574.00
2022-09-06T03:30:48.426Z,99577.72
2022-09-06T03:31:50.281Z,99572.47
2022-09-06T03:32:51.985Z,99585.13
2022-09-06T03:33:53.702Z,99574.56
2022-09-06T03:34:55.410Z,99584.41
2022-09-06T03:36:00.560Z,99597.19
2022-09-06T03:37:02.302Z,99583.88
2022-09-06T03:38:04.040Z,99591.59
2022-09-06T03:39:06.806Z,99585.47
2022-09-06T03:40:09.411Z,99574.22
2022-09-06T03:41:11.194Z,99575.38
2022-09-06T03:42:12.937Z,99581.53
2022-09-06T03:43:15.752Z,99583.38
2022-09-06T03:44:17.458Z,99586.03
2022-09-06T03:45:19.196Z,99592.41
2022-09-06T03:46:21.011Z,99584.91
2022-09-06T03:47:22.834Z,99590.69
2022-09-06T03:48:26.841Z,99576.53
2022-09-06T03:49:28.639Z,99586.25
2022-09-06T03:50:30.380Z,99592.91
2022-09-06T03:51:32.375Z,99580.88
2022-09-06T03:52:34.173Z,99586.53
2022-09-06T03:53:35.941Z,99595.13
2022-09-06T03:54:37.754Z,99580.38
2022-09-06T03:55:39.893Z,99589.63
2022-09-06T03:56:41.632Z,99585.66
2022-09-06T03:57:43.401Z,99572.19
2022-09-06T03:58:45.331Z,99591.47
2022-09-06T03:59:47.105Z,99594.81
2022-09-06T04:00:48.982Z,99590.69
2022-09-06T04:01:50.758Z,99594.75
2022-09-06T04:02:52.480Z,99590.69
2022-09-06T04:03:54.218Z,99590.81
2022-09-06T04:04:56.003Z,99582.91
2022-09-06T04:05:57.982Z,99602.19
2022-09-06T04:06:59.743Z,99607.28
2022-09-06T04:08:02.492Z,99604.41
2022-09-06T04:09:04.763Z,99604.84
2022-09-06T04:10:07.134Z,99600.56
2022-09-06T04:11:08.927Z,99605.22
2022-09-06T04:12:10.656Z,99599.75
2022-09-06T04:13:12.378Z,99615.44
2022-09-06T04:14:14.342Z,99620.28
2022-09-06T04:15:16.211Z,99612.44
2022-09-06T04:16:18.840Z,99608.31
2022-09-06T04:17:20.687Z,99617.00
2022-09-06T04:18:22.893Z,99577.03
2022-09-06T04:19:24.667Z,99619.00
2022-09-06T04:20:26.585Z,99611.91
2022-09-06T04:21:28.394Z,99622.84
2022-09-06T04:22:30.600Z,99616.22
2022-09-06T04:23:34.338Z,99611.22
2022-09-06T04:24:39.462Z,99615.06
2022-09-06T04:25:41.240Z,99599.75
2022-09-06T04:26:42.976Z,99606.69
2022-09-06T04:27:44.685Z,99619.72
2022-09-06T04:28:46.573Z,99611.91
2022-09-06T04:29:48.360Z,99599.13
2022-09-06T04:31:04.713Z,99610.84
2022-09-06T04:32:07.121Z,99613.81
2022-09-06T04:33:08.947Z,99600.88
2022-09-06T04:34:10.906Z,99613.00
2022-09-06T04:35:12.623Z,99610.84
2022-09-06T04:36:14.343Z,99614.28
2022-09-06T04:37:20.137Z,99608.97
2022-09-06T04:38:22.126Z,99606.56
2022-09-06T04:39:24.375Z,99619.84
2022-09-06T04:40:26.161Z,99620.34
2022-09-06T04:41:27.939Z,99571.69
2022-09-06T04:42:29.959Z,99613.75
2022-09-06T04:43:32.274Z,99608.59
2022-09-06T04:44:33.993Z,99598.38
2022-09-06T04:45:35.776Z,99595.47
2022-09-06T04:46:37.604Z,99601.09
2022-09-06T04:47:39.324Z,99605.56
2022-09-06T04:48:41.159Z,99604.66
2022-09-06T04:49:43.229Z,99599.94
2022-09-06T04:50:45.144Z,99596.34
2022-09-06T04:51:46.900Z,99601.56
2022-09-06T04:52:48.788Z,99605.72
2022-09-06T04:53:51.156Z,99601.59
2022-09-06T04:54:52.879Z,99583.66
2022-09-06T04:55:57.784Z,99599.91
2022-09-06T04:56:59.517Z,99601.09
2022-09-06T04:58:01.826Z,99600.91
2022-09-06T04:59:03.615Z,99578.91
2022-09-06T05:00:06.288Z,99603.16
2022-09-06T05:01:08.066Z,99599.13
2022-09-06T05:02:09.878Z,99599.44
2022-09-06T05:03:11.625Z,99591.34
2022-09-06T05:04:13.350Z,99595.09
2022-09-06T05:05:15.255Z,99595.31
2022-09-06T05:06:23.204Z,99602.03
2022-09-06T05:07:24.972Z,99577.22
2022-09-06T05:08:26.930Z,99598.94
2022-09-06T05:09:28.812Z,99588.63
2022-09-06T05:10:31.092Z,99601.75
2022-09-06T05:11:32.876Z,99599.22
2022-09-06T05:12:35.086Z,99598.25
2022-09-06T05:13:36.981Z,99589.06
2022-09-06T05:14:38.688Z,99603.97
2022-09-06T05:15:40.467Z,99603.34
2022-09-06T05:16:42.343Z,99579.81
2022-09-06T05:17:44.331Z,99591.78
2022-09-06T05:18:46.169Z,99598.81
2022-09-06T05:19:48.542Z,99587.63
2022-09-06T05:20:53.933Z,99595.50
2022-09-06T05:21:55.639Z,99593.72
2022-09-06T05:22:57.429Z,99602.72
2022-09-06T05:23:59.211Z,99596.94
2022-09-06T05:25:01.173Z,99598.09
2022-09-06T05:26:03.801Z,99595.72
2022-09-06T05:27:05.666Z,99591.25
2022-09-06T05:28:07.509Z,99582.94
2022-09-06T05:29:09.276Z,99593.25
2022-09-06T05:30:11.535Z,99593.66
2022-09-06T05:31:33.719Z,99594.94
2022-09-06T05:32:35.493Z,99590.44
2022-09-06T05:33:37.807Z,99587.53
2022-09-06T05:34:39.527Z,99595.47
2022-09-06T05:35:41.271Z,99596.91
2022-09-06T05:36:43.054Z,99592.09
2022-09-06T05:37:44.874Z,99589.41
2022-09-06T05:38:46.630Z,99591.91
2022-09-06T05:39:48.430Z,99584.78
2022-09-06T05:40:50.583Z,99579.94
2022-09-06T05:41:52.357Z,99589.56
2022-09-06T05:42:54.180Z,99581.13
2022-09-06T05:43:55.928Z,99585.72
2022-09-06T05:44:57.834Z,99583.50
2022-09-06T05:45:59.636Z,99591.44
2022-09-06T05:47:01.671Z,99587.22
2022-09-06T05:48:03.705Z,99591.31
2022-09-06T05:49:08.061Z,99577.34
2022-09-06T05:50:10.490Z,99579.66
2022-09-06T05:51:13.561Z,99563.66
2022-09-06T05:52:15.336Z,99585.69
2022-09-06T05:53:17.053Z,99572.00
2022-09-06T05:54:18.944Z,99586.09
2022-09-06T05:55:20.673Z,99573.00
2022-09-06T05:56:22.740Z,99578.59
2022-09-06T05:57:24.631Z,99574.91
2022-09-06T05:58:26.463Z,99574.66
2022-09-06T05:59:28.314Z,99567.97
2022-09-06T06:00:30.095Z,99570.63
2022-09-06T06:01:31.935Z,99572.56
2022-09-06T06:02:33.780Z,99572.13
2022-09-06T06:03:35.598Z,99577.28
2022-09-06T06:04:37.655Z,99569.44
2022-09-06T06:05:39.411Z,99582.19
2022-09-06T06:06:41.138Z,99574.38
2022-09-06T06:07:43.048Z,99578.88
2022-09-06T06:08:44.932Z,99576.66
2022-09-06T06:09:46.683Z,99572.34
2022-09-06T06:10:48.396Z,99578.59
2022-09-06T06:11:50.095Z,99578.47
2022-09-06T06:12:51.792Z,99579.97
2022-09-06T06:13:55.051Z,99577.00
2022-09-06T06:14:57.023Z,99576.53
2022-09-06T06:15:58.766Z,99575.53
2022-09-06T06:17:00.617Z,99572.50
2022-09-06T06:18:02.394Z,99576.88
2022-09-06T06:19:04.103Z,99571.63
2022-09-06T06:20:06.351Z,99561.38
2022-09-06T06:21:10.960Z,99577.91
2022-09-06T06:22:12.737Z,99575.84
2022-09-06T06:23:15.762Z,99578.59
2022-09-06T06:24:17.486Z,99571.69
2022-09-06T06:25:23.205Z,99577.31
2022-09-06T06:26:26.629Z,99570.25
2022-09-06T06:27:28.425Z,99576.66
2022-09-06T06:28:30.199Z,99578.91
2022-09-06T06:29:31.921Z,99579.03
2022-09-06T06:30:33.680Z,99575.00
2022-09-06T06:31:37.198Z,99566.50
2022-09-06T06:32:38.971Z,99581.41
2022-09-06T06:33:41.157Z,99574.00
2022-09-06T06:34:42.923Z,99573.03
2022-09-06T06:36:02.656Z,99576.16
2022-09-06T06:37:04.453Z,99565.69
2022-09-06T06:38:06.169Z,99575.41
2022-09-06T06:39:08.794Z,99574.25
2022-09-06T06:40:10.796Z,99561.28
2022-09-06T06:41:15.417Z,99576.19
2022-09-06T06:42:17.189Z,99576.75
2022-09-06T06:43:18.934Z,99577.22
2022-09-06T06:44:20.671Z,99580.16
2022-09-06T06:45:22.435Z,99579.91
2022-09-06T06:46:26.953Z,99572.19
2022-09-06T06:47:28.670Z,99575.66
2022-09-06T06:48:30.670Z,99572.28
2022-09-06T06:49:32.780Z,99571.72
2022-09-06T06:50:34.490Z,99579.72
2022-09-06T06:51:39.640Z,99572.22
2022-09-06T06:52:41.389Z,99581.75
2022-09-06T06:53:47.723Z,99561.69
2022-09-06T06:54:50.227Z,99567.50
2022-09-06T06:55:52.013Z,99578.34
2022-09-06T06:56:54.056Z,99565.47
2022-09-06T06:57:56.021Z,99574.31
2022-09-06T06:59:00.220Z,99574.78
2022-09-06T07:00:04.570Z,99570.91
2022-09-06T07:01:06.983Z,99576.50
2022-09-06T07:02:08.882Z,99571.50
2022-09-06T07:03:12.111Z,99567.47
2022-09-06T07:04:14.388Z,99570.53
2022-09-06T07:08:14.978Z,99573.59
2022-09-06T07:09:18.662Z,99577.59
2022-09-06T07:10:35.788Z,99571.03
2022-09-06T07:11:38.490Z,99572.50
2022-09-06T07:12:40.302Z,99572.75
2022-09-06T07:13:42.355Z,99566.16
2022-09-06T07:14:44.051Z,99572.97
2022-09-06T07:15:45.760Z,99567.00
2022-09-06T07:16:47.709Z,99577.75
2022-09-06T07:17:49.577Z,99572.25
2022-09-06T07:18:52.831Z,99577.16
2022-09-06T07:22:41.040Z,99573.44
2022-09-06T07:25:06.807Z,99574.34
2022-09-06T07:26:13.612Z,99576.56
2022-09-06T07:28:37.257Z,99575.31
2022-09-06T07:29:38.979Z,99576.13
2022-09-06T07:30:42.162Z,99569.53
2022-09-06T07:33:05.657Z,99574.38
2022-09-06T07:34:07.384Z,99570.88
2022-09-06T07:35:09.462Z,99578.88
2022-09-06T07:36:11.653Z,99573.28
2022-09-06T07:37:13.439Z,99568.75
2022-09-06T07:38:15.201Z,99573.97
2022-09-06T07:39:16.913Z,99566.13
2022-09-06T07:40:18.751Z,99540.56
2022-09-06T07:41:21.138Z,99561.88
2022-09-06T07:42:22.905Z,99557.28
2022-09-06T07:43:25.566Z,99553.63
2022-09-06T07:44:28.939Z,99551.47
2022-09-06T07:45:30.727Z,99556.47
2022-09-06T07:46:32.522Z,99560.38
2022-09-06T07:48:56.025Z,99552.97
2022-09-06T07:51:21.624Z,99551.38
2022-09-06T07:53:57.907Z,99546.47
2022-09-06T07:55:04.615Z,99551.97
2022-09-06T07:56:08.621Z,99544.72
2022-09-06T07:57:12.220Z,99546.09
2022-09-06T07:58:14.059Z,99537.69
2022-09-06T07:59:15.823Z,99536.25
2022-09-06T08:00:18.718Z,99542.72
2022-09-06T08:01:34.511Z,99545.81
2022-09-06T08:02:36.226Z,99543.78
2022-09-06T08:03:37.932Z,99545.34
2022-09-06T08:04:41.305Z,99545.97
2022-09-06T08:09:48.220Z,99548.28
2022-09-06T08:10:51.191Z,99549.38
2022-09-06T08:11:53.131Z,99544.75
2022-09-06T08:12:57.750Z,99548.28
2022-09-06T08:14:01.282Z,99539.41
2022-09-06T08:15:03.005Z,99542.81
2022-09-06T08:16:10.606Z,99542.94
2022-09-06T08:17:12.642Z,99548.97
2022-09-06T08:18:14.422Z,99548.78
2022-09-06T08:19:17.111Z,99552.31
2022-09-06T08:20:18.895Z,99552.75
2022-09-06T08:21:21.214Z,99542.81
2022-09-06T08:22:22.915Z,99544.19
2022-09-06T08:23:24.676Z,99547.81
2022-09-06T08:24:26.615Z,99546.31
2022-09-06T08:25:28.329Z,99548.63
2022-09-06T08:26:32.207Z,99546.13
2022-09-06T08:27:34.339Z,99541.75
2022-09-06T08:28:36.647Z,99549.31
2022-09-06T08:29:39.993Z,99539.44
2022-09-06T08:30:41.748Z,99538.88
2022-09-06T08:31:45.033Z,99539.84
2022-09-06T08:32:46.919Z,99536.06
2022-09-06T08:33:48.658Z,99523.16
2022-09-06T08:34:50.852Z,99532.56
2022-09-06T08:35:59.332Z,99541.31
2022-09-06T08:37:01.103Z,99532.19
2022-09-06T08:38:02.808Z,99535.41
2022-09-06T08:39:11.855Z,99525.69
2022-09-06T08:40:21.434Z,99528.50
2022-09-06T08:41:27.669Z,99532.78
2022-09-06T08:42:31.521Z,99529.69
2022-09-06T08:43:33.486Z,99528.84
2022-09-06T08:45:00.784Z,99524.53
2022-09-06T08:46:03.465Z,99531.22
2022-09-06T08:47:07.981Z,99522.00
2022-09-06T08:48:09.819Z,99528.13
2022-09-06T08:49:12.421Z,99526.75
2022-09-06T08:50:14.167Z,99522.66
2022-09-06T08:51:46.884Z,99526.84
2022-09-06T08:53:19.117Z,99511.66
2022-09-06T08:54:58.281Z,99518.53
2022-09-06T08:56:13.626Z,99520.47
2022-09-06T08:57:40.456Z,99514.59
2022-09-06T08:59:06.771Z,99523.66
2022-09-06T09:00:12.607Z,99500.47
2022-09-06T09:01:27.709Z,99506.47
2022-09-06T09:02:41.869Z,99509.19
2022-09-06T09:03:44.938Z,99503.75
2022-09-06T09:04:56.241Z,99494.84
2022-09-06T09:06:00.256Z,99487.13
2022-09-06T09:07:33.111Z,99498.75
2022-09-06T09:09:04.107Z,99498.66
2022-09-06T09:10:40.678Z,99492.91
2022-09-06T09:11:50.018Z,99494.41
2022-09-06T09:12:51.758Z,99461.28
2022-09-06T09:13:56.075Z,99503.63
2022-09-06T09:15:05.581Z,99473.28
2022-09-06T09:16:07.908Z,99493.94
2022-09-06T09:17:20.555Z,99491.53
2022-09-06T09:18:30.192Z,99489.97
2022-09-06T09:19:36.747Z,99482.41
2022-09-06T09:20:39.316Z,99481.53
2022-09-06T09:21:41.151Z,99474.31
2022-09-06T09:22:43.829Z,99476.88
2022-09-06T09:23:54.118Z,99477.09
2022-09-06T09:24:59.426Z,99471.03
2022-09-06T09:26:09.903Z,99469.84
2022-09-06T09:27:14.008Z,99470.72
2022-09-06T09:28:19.106Z,99472.09
2022-09-06T09:29:25.324Z,99459.59
2022-09-06T09:30:56.816Z,99469.25
2022-09-06T09:31:58.659Z,99471.84
2022-09-06T09:33:00.686Z,99475.63
2022-09-06T09:34:04.918Z,99471.06
2022-09-06T09:35:27.421Z,99467.88
2022-09-06T09:36:29.155Z,99462.75
2022-09-06T09:37:46.997Z,99465.34
2022-09-06T09:38:51.847Z,99461.91
2022-09-06T09:39:55.906Z,99446.56
2022-09-06T09:41:05.866Z,99460.66
2022-09-06T09:42:09.377Z,99463.53
2022-09-06T09:43:15.967Z,99453.75
2022-09-06T09:44:19.961Z,99441.50
2022-09-06T09:45:31.330Z,99453.53
2022-09-06T09:46:39.278Z,99447.84
2022-09-06T09:47:41.037Z,99443.63
2022-09-06T09:49:07.702Z,99435.69
2022-09-06T09:50:25.012Z,99447.44
2022-09-06T09:51:27.814Z,99443.38
2022-09-06T09:52:32.083Z,99448.22
2022-09-06T09:53:33.844Z,99444.19
2022-09-06T09:54:39.234Z,99447.72
2022-09-06T09:55:42.563Z,99433.31
2022-09-06T09:56:49.513Z,99434.16
2022-09-06T09:57:54.359Z,99438.72
2022-09-06T09:58:58.350Z,99437.31
2022-09-06T10:00:06.609Z,99436.66
2022-09-06T10:01:30.801Z,99435.25
2022-09-06T10:02:40.737Z,99430.63
2022-09-06T10:05:10.111Z,99435.16
2022-09-06T10:07:44.064Z,99436.19
2022-09-06T10:08:45.827Z,99414.66
2022-09-06T10:09:50.171Z,99426.03
2022-09-06T10:10:52.100Z,99432.38
2022-09-06T10:11:58.290Z,99424.19
2022-09-06T10:13:14.757Z,99426.94
2022-09-06T10:14:28.021Z,99418.34
2022-09-06T10:15:34.290Z,99418.59
2022-09-06T10:16:45.800Z,99416.38
2022-09-06T10:17:48.836Z,99421.75
2022-09-06T10:18:53.114Z,99409.78
2022-09-06T10:19:54.959Z,99420.09
2022-09-06T10:21:06.164Z,99418.81
2022-09-06T10:22:20.250Z,99408.19
2022-09-06T10:24:57.267Z,99407.94
2022-09-06T10:26:31.404Z,99403.16
2022-09-06T10:27:33.461Z,99389.09
2022-09-06T10:28:39.200Z,99402.25
2022-09-06T10:29:40.908Z,99401.97
2022-09-06T10:31:16.164Z,99387.56
2022-09-06T10:33:09.929Z,99394.44
2022-09-06T10:34:35.712Z,99396.75
2022-09-06T10:35:38.490Z,99399.63
2022-09-06T10:36:48.349Z,99383.31
2022-09-06T10:38:01.845Z,99399.56
2022-09-06T10:39:40.907Z,99400.19
2022-09-06T10:40:51.321Z,99387.34
2022-09-06T10:42:08.574Z,99398.47
2022-09-06T10:43:18.612Z,99397.19
2022-09-06T10:44:28.973Z,99383.84
2022-09-06T10:45:46.712Z,99381.38
2022-09-06T10:46:55.604Z,99381.97
2022-09-06T10:48:14.942Z,99369.88
2022-09-06T10:49:20.004Z,99376.97
2022-09-06T10:50:29.044Z,99390.38
2022-09-06T10:51:50.201Z,99360.31
2022-09-06T10:52:53.686Z,99377.03
2022-09-06T10:54:01.902Z,99374.31
2022-09-06T10:55:05.854Z,99378.81
2022-09-06T10:56:17.059Z,99373.38
2022-09-06T11:00:17.347Z,99378.13
2022-09-06T11:01:42.049Z,99375.59
2022-09-06T11:04:31.565Z,99368.69
2022-09-06T11:05:44.930Z,99371.44
2022-09-06T11:06:52.805Z,99370.19
2022-09-06T11:09:26.086Z,99373.16
2022-09-06T11:10:31.434Z,99372.94
2022-09-06T11:11:40.495Z,99364.59
2022-09-06T11:13:06.735Z,99368.66
2022-09-06T11:14:13.613Z,99369.91
2022-09-06T11:15:18.212Z,99359.69
2022-09-06T11:16:39.679Z,99360.06
2022-09-06T11:17:59.793Z,99361.06
2022-09-06T11:19:07.895Z,99360.50
2022-09-06T11:21:05.298Z,99357.72
2022-09-06T11:22:19.209Z,99356.56
2022-09-06T11:23:23.711Z,99358.13
2022-09-06T11:24:37.360Z,99355.97
2022-09-06T11:25:51.317Z,99345.25
2022-09-06T11:27:13.108Z,99351.59
2022-09-06T11:28:30.725Z,99355.06
2022-09-06T11:29:34.921Z,99358.75
2022-09-06T11:30:37.273Z,99356.81
2022-09-06T11:33:30.460Z,99346.31
2022-09-06T11:34:35.350Z,99346.69
2022-09-06T11:35:37.946Z,99344.53
2022-09-06T11:36:45.445Z,99348.34
2022-09-06T11:37:51.188Z,99351.63
2022-09-06T11:39:02.054Z,99347.06
2022-09-06T11:41:40.951Z,99343.41
2022-09-06T11:42:45.591Z,99341.34
2022-09-06T11:43:51.866Z,99340.75
2022-09-06T11:45:21.289Z,99340.22
2022-09-06T11:46:44.443Z,99296.72
2022-09-06T11:47:48.623Z,99322.38
2022-09-06T11:49:03.536Z,99327.81
2022-09-06T11:50:20.765Z,99316.78
2022-09-06T11:51:35.351Z,99315.25
2022-09-06T11:52:55.634Z,99317.63
2022-09-06T11:53:57.922Z,99312.59
2022-09-06T11:54:59.757Z,99328.94
2022-09-06T11:56:01.498Z,99317.16
2022-09-06T11:57:16.809Z,99320.44
2022-09-06T11:58:18.532Z,99312.47
2022-09-06T11:59:34.108Z,99306.59
2022-09-06T12:00:36.005Z,99307.44
2022-09-06T12:01:41.028Z,99306.91
2022-09-06T12:02:45.134Z,99313.63
2022-09-06T12:04:06.594Z,99308.19
2022-09-06T12:05:16.797Z,99301.19
2022-09-06T12:06:27.936Z,99308.25
2022-09-06T12:07:32.111Z,99308.41
2022-09-06T12:08:34.512Z,99303.47
2022-09-06T12:09:46.425Z,99297.84
2022-09-06T12:11:01.104Z,99300.56
2022-09-06T12:12:03.894Z,99297.84
2022-09-06T12:13:39.808Z,99302.16
2022-09-06T12:14:46.236Z,99297.78
2022-09-06T12:15:55.421Z,99297.31
2022-09-06T12:17:07.253Z,99302.44
2022-09-06T12:18:09.057Z,99299.59
2022-09-06T12:19:44.516Z,99295.28
2022-09-06T12:20:49.287Z,99306.47
2022-09-06T12:21:52.527Z,99306.50
2022-09-06T12:22:55.030Z,99299.91
2022-09-06T12:23:56.850Z,99297.22
2022-09-06T12:25:26.457Z,99298.50
2022-09-06T12:26:55.903Z,99290.94
2022-09-06T12:28:00.481Z,99291.75
2022-09-06T12:29:10.824Z,99289.69
2022-09-06T12:30:14.205Z,99283.94
2022-09-06T12:31:25.183Z,99284.09
2022-09-06T12:32:44.531Z,99297.53
2022-09-06T12:33:48.210Z,99285.91
2022-09-06T12:36:24.182Z,99285.94
2022-09-06T12:37:37.281Z,99279.19
2022-09-06T12:38:39.095Z,99284.47
2022-09-06T12:39:58.414Z,99270.09
2022-09-06T12:41:01.329Z,99274.38
2022-09-06T12:42:06.765Z,99277.88
2022-09-06T12:43:11.263Z,99277.53
2022-09-06T12:44:15.916Z,99276.09
2022-09-06T12:45:26.663Z,99275.56
2022-09-06T12:46:31.100Z,99267.91
2022-09-06T12:47:35.864Z,99272.25
2022-09-06T12:48:41.511Z,99266.00
2022-09-06T12:49:43.283Z,99263.50
2022-09-06T12:50:45.053Z,99263.75
2022-09-06T12:51:47.630Z,99264.59
2022-09-06T12:52:56.907Z,99259.78
2022-09-06T12:54:22.075Z,99269.66
2022-09-06T12:55:33.891Z,99257.47
2022-09-06T12:56:35.701Z,99243.06
2022-09-06T12:57:37.449Z,99253.31
2022-09-06T12:58:39.753Z,99243.09
2022-09-06T13:00:07.679Z,99240.47
2022-09-06T13:01:23.234Z,99253.91
2022-09-06T13:02:31.856Z,99250.81
2022-09-06T13:04:05.228Z,99245.72
2022-09-06T13:05:12.009Z,99237.88
2022-09-06T13:06:26.628Z,99251.28
2022-09-06T13:07:29.465Z,99253.44
2022-09-06T13:08:35.143Z,99249.22
2022-09-06T13:09:39.761Z,99251.50
2022-09-06T13:10:45.248Z,99246.06
2022-09-06T13:11:51.639Z,99235.66
2022-09-06T13:12:56.432Z,99251.59
2022-09-06T13:13:58.983Z,99249.56
2022-09-06T13:15:14.713Z,99237.69
2022-09-06T13:16:23.001Z,99243.06
2022-09-06T13:17:27.267Z,99226.94
2022-09-06T13:18:38.095Z,99239.47
2022-09-06T13:19:42.168Z,99239.56
2022-09-06T13:20:43.989Z,99232.19
2022-09-06T13:21:47.133Z,99236.84
2022-09-06T13:22:51.030Z,99236.22
2022-09-06T13:23:53.188Z,99225.50
2022-09-06T13:24:56.642Z,99230.81
2022-09-06T13:25:58.545Z,99223.03
2022-09-06T13:27:00.295Z,99247.28
2022-09-06T13:28:03.452Z,99239.16
2022-09-06T13:29:22.174Z,99225.41
2022-09-06T13:30:49.643Z,99236.09
2022-09-06T13:31:57.105Z,99218.44
2022-09-06T13:32:59.472Z,99222.97
2022-09-06T13:34:01.258Z,99234.09
2022-09-06T13:35:04.045Z,99231.72